Time;durP1;ratioP1;P1;durP2;ratioP2;P2;SDS_P1;SDS_P2;PMS_P1;PMS_P2;Temp;Humidity;BMP_temperature;BMP_pressure;BME280_temperature;BME280_humidity;BME280_pressure;Samples;Min_cycle;Max_cycle;Signal;HPM_P1;HPM_P2
2023/09/05 00:01:53;;;;;;;5.20;4.80;;;;;;;23.07;49.31;97952.16;5083448;28;20783;-71
2023/09/05 00:04:19;;;;;;;4.90;4.40;;;;;;;23.05;49.21;97949.72;5057512;28;20536;-71
2023/09/05 00:06:46;;;;;;;4.77;4.37;;;;;;;23.09;48.91;97950.09;5085744;28;20242;-70
2023/09/05 00:09:12;;;;;;;5.40;4.90;;;;;;;23.11;48.80;97946.16;5075784;28;20243;-73
2023/09/05 00:11:37;;;;;;;4.60;4.20;;;;;;;23.02;49.02;97950.94;5079896;28;20443;-70
2023/09/05 00:14:03;;;;;;;5.13;4.63;;;;;;;22.96;49.12;97941.13;5074606;28;20210;-70
2023/09/05 00:16:29;;;;;;;5.80;5.30;;;;;;;22.84;49.62;97935.63;5080628;28;20222;-73
2023/09/05 00:18:54;;;;;;;5.50;5.00;;;;;;;22.85;49.57;97926.59;5076465;28;20214;-71
2023/09/05 00:21:20;;;;;;;5.50;4.77;;;;;;;22.84;49.36;97924.94;5081918;28;20190;-70
2023/09/05 00:23:45;;;;;;;6.03;4.70;;;;;;;22.83;49.30;97925.97;5070540;28;20182;-69
2023/09/05 00:26:11;;;;;;;5.07;4.57;;;;;;;22.84;48.84;97926.81;5070854;28;20324;-70
2023/09/05 00:28:36;;;;;;;6.10;5.50;;;;;;;22.88;48.82;97932.53;5075654;28;20193;-69
2023/09/05 00:31:02;;;;;;;5.50;5.00;;;;;;;22.85;48.44;97928.44;5078251;28;20227;-71
2023/09/05 00:33:31;;;;;;;5.60;4.03;;;;;;;22.78;47.89;97931.16;5078368;28;20724;-72
2023/09/05 00:35:56;;;;;;;4.10;3.70;;;;;;;22.66;47.15;97930.19;5076325;28;20201;-71
2023/09/05 00:38:22;;;;;;;6.60;3.80;;;;;;;22.63;47.38;97928.75;5077094;28;20571;-71
2023/09/05 00:40:50;;;;;;;7.40;4.03;;;;;;;22.62;47.77;97929.78;5069566;28;20588;-72
2023/09/05 00:43:20;;;;;;;6.87;4.70;;;;;;;22.63;47.98;97931.41;5089048;28;20603;-71
2023/09/05 00:45:51;;;;;;;7.10;4.67;;;;;;;22.61;47.50;97927.31;5076384;28;20460;-72
2023/09/05 00:48:18;;;;;;;4.23;3.83;;;;;;;22.58;47.20;97923.22;5069417;28;20435;-70
2023/09/05 00:50:45;;;;;;;4.27;3.87;;;;;;;22.57;47.00;97932.28;5062561;28;20436;-71
2023/09/05 00:53:11;;;;;;;4.50;4.10;;;;;;;22.60;47.16;97931.03;5049987;28;20436;-71
2023/09/05 00:55:36;;;;;;;3.90;3.50;;;;;;;22.62;46.99;97928.97;5081019;28;20443;-72
2023/09/05 00:58:02;;;;;;;6.00;3.70;;;;;;;22.64;46.82;97933.06;5072270;28;20241;-74
2023/09/05 01:00:28;;;;;;;5.80;3.73;;;;;;;22.65;46.55;97931.22;5078839;28;20721;-71
2023/09/05 01:02:53;;;;;;;4.80;3.50;;;;;;;22.61;46.77;97933.50;5057084;28;20440;-71
2023/09/05 01:05:21;;;;;;;3.80;3.50;;;;;;;22.58;46.79;97933.09;5084621;28;20751;-72
2023/09/05 01:07:59;;;;;;;3.77;3.40;;;;;;;22.41;47.06;97930.91;5063861;28;20781;-71
2023/09/05 01:10:48;;;;;;;5.50;3.60;;;;;;;22.38;47.22;97928.63;5064014;28;20424;-71
2023/09/05 01:13:22;;;;;;;5.80;3.70;;;;;;;22.32;47.45;97932.97;5070565;28;20929;-70
2023/09/05 01:15:47;;;;;;;4.80;3.40;;;;;;;22.28;47.97;97938.94;5077053;28;20449;-70
2023/09/05 01:18:13;;;;;;;4.10;3.70;;;;;;;22.21;47.97;97934.41;5070741;28;20477;-73
2023/09/05 01:20:52;;;;;;;4.50;3.87;;;;;;;22.20;48.08;97938.13;5078925;28;20269;-71
2023/09/05 01:23:24;;;;;;;4.93;3.00;;;;;;;22.26;47.66;97941.78;5058651;28;20216;-72
2023/09/05 01:25:50;;;;;;;3.90;3.30;;;;;;;22.23;47.84;97936.91;5065868;28;20451;-71
2023/09/05 01:28:16;;;;;;;10.73;3.63;;;;;;;22.20;47.71;97943.44;5063926;28;20425;-71
2023/09/05 01:30:42;;;;;;;6.30;3.73;;;;;;;22.11;47.58;97949.25;5072440;28;20937;-72
2023/09/05 01:33:08;;;;;;;4.13;3.83;;;;;;;22.04;47.59;97950.06;5062643;28;20197;-72
2023/09/05 01:35:33;;;;;;;4.40;3.47;;;;;;;22.01;47.63;97944.31;5079273;28;20217;-71
2023/09/05 01:37:59;;;;;;;4.07;3.70;;;;;;;21.99;47.77;97941.84;5073185;28;20317;-72
2023/09/05 01:40:24;;;;;;;3.60;3.30;;;;;;;21.91;48.19;97934.06;5062017;28;20181;-72
2023/09/05 01:42:50;;;;;;;5.07;3.27;;;;;;;21.89;47.61;97939.63;5083579;28;20222;-70
2023/09/05 01:45:15;;;;;;;3.20;2.90;;;;;;;21.86;48.17;97936.56;5080744;28;20897;-71
2023/09/05 01:47:41;;;;;;;4.03;3.63;;;;;;;21.83;48.01;97927.09;5073136;28;20225;-70
2023/09/05 01:50:06;;;;;;;3.60;3.23;;;;;;;21.68;48.44;97929.16;5076908;28;20782;-72
2023/09/05 01:52:32;;;;;;;3.97;3.13;;;;;;;21.69;48.13;97933.47;5078695;28;20722;-73
2023/09/05 01:54:57;;;;;;;3.43;3.00;;;;;;;21.62;48.17;97928.97;5077855;28;20234;-73
2023/09/05 01:57:22;;;;;;;3.20;2.90;;;;;;;21.62;48.13;97936.97;5067116;28;20331;-73
2023/09/05 01:59:48;;;;;;;3.50;3.03;;;;;;;21.66;48.39;97928.56;5077756;28;20813;-72
2023/09/05 02:02:13;;;;;;;4.70;3.53;;;;;;;21.67;47.86;97919.56;5077541;28;20624;-72
2023/09/05 02:04:39;;;;;;;4.50;3.03;;;;;;;21.65;47.90;97918.94;5069272;28;20266;-73
2023/09/05 02:07:08;;;;;;;3.33;3.03;;;;;;;21.64;48.29;97918.09;5075950;28;20191;-74
2023/09/05 02:09:35;;;;;;;3.60;3.30;;;;;;;21.67;47.89;97919.56;5076972;28;20619;-72
2023/09/05 02:12:00;;;;;;;3.00;2.80;;;;;;;21.63;47.45;97922.63;5078475;28;20511;-70
2023/09/05 02:14:26;;;;;;;3.13;2.80;;;;;;;21.56;47.74;97911.09;5073991;28;20534;-73
2023/09/05 02:16:51;;;;;;;3.60;3.30;;;;;;;21.51;48.10;97910.91;5053404;28;20221;-73
2023/09/05 02:19:17;;;;;;;7.53;3.00;;;;;;;21.46;47.91;97911.53;5073549;28;20268;-71
2023/09/05 02:21:43;;;;;;;10.00;3.37;;;;;;;21.43;47.88;97916.41;5074441;28;20425;-71
2023/09/05 02:24:08;;;;;;;3.40;3.07;;;;;;;21.39;48.37;97915.22;5073936;28;20233;-72
2023/09/05 02:26:34;;;;;;;3.30;3.00;;;;;;;21.40;48.28;97920.31;5077244;28;20813;-71
2023/09/05 02:28:59;;;;;;;4.07;2.83;;;;;;;21.41;47.90;97918.50;5076301;28;20288;-71
2023/09/05 02:31:25;;;;;;;4.50;3.23;;;;;;;21.45;47.79;97914.38;5069928;28;20194;-72
2023/09/05 02:33:50;;;;;;;3.00;2.80;;;;;;;21.46;48.22;97916.03;5069687;28;20204;-74
2023/09/05 02:36:17;;;;;;;3.77;3.47;;;;;;;21.43;47.87;97921.75;5085520;28;20226;-71
2023/09/05 02:38:43;;;;;;;4.00;3.10;;;;;;;21.38;47.83;97918.91;5079785;28;20220;-74
2023/09/05 02:41:16;;;;;;;4.10;3.03;;;;;;;21.36;48.16;97927.09;5077801;28;20444;-73
2023/09/05 02:43:41;;;;;;;4.43;3.10;;;;;;;21.35;47.67;97921.97;5079624;28;20463;-71
2023/09/05 02:46:07;;;;;;;7.93;3.20;;;;;;;21.37;47.66;97933.25;5076771;28;20539;-71
2023/09/05 02:48:38;;;;;;;3.00;2.80;;;;;;;21.25;47.41;97928.53;5081047;28;20189;-72
2023/09/05 02:51:09;;;;;;;3.70;3.03;;;;;;;21.16;48.53;97927.09;5079759;28;20428;-71
2023/09/05 02:53:34;;;;;;;3.07;2.87;;;;;;;21.15;48.58;97936.91;5071203;28;20419;-71
2023/09/05 02:56:00;;;;;;;3.40;3.00;;;;;;;21.09;48.53;97929.75;5059341;28;20448;-70
2023/09/05 02:58:28;;;;;;;3.73;3.33;;;;;;;21.07;48.45;97930.94;5079834;28;20206;-71
2023/09/05 03:01:00;;;;;;;3.10;2.80;;;;;;;21.05;48.80;97933.81;5079775;28;20195;-71
2023/09/05 03:03:25;;;;;;;4.10;3.70;;;;;;;21.04;48.76;97928.72;5077468;28;20429;-71
2023/09/05 03:05:52;;;;;;;3.30;3.00;;;;;;;21.02;48.75;97936.88;5083676;28;21159;-72
2023/09/05 03:08:17;;;;;;;4.20;3.60;;;;;;;21.00;48.98;97933.59;5073255;28;20284;-69
2023/09/05 03:10:42;;;;;;;3.40;3.00;;;;;;;20.95;48.94;97938.72;5083674;28;20638;-72
2023/09/05 03:13:08;;;;;;;3.60;3.30;;;;;;;20.86;49.01;97932.75;5056111;28;20554;-72
2023/09/05 03:15:33;;;;;;;5.23;3.33;;;;;;;20.80;49.41;97939.72;5079749;28;20241;-73
2023/09/05 03:17:59;;;;;;;4.53;3.13;;;;;;;20.86;49.45;97938.09;5081501;28;20297;-72
2023/09/05 03:20:25;;;;;;;3.53;3.23;;;;;;;20.84;49.49;97940.13;5053528;28;20209;-70
2023/09/05 03:22:52;;;;;;;7.33;3.20;;;;;;;20.75;49.79;97934.16;5077265;28;20629;-74
2023/09/05 03:25:18;;;;;;;5.73;3.10;;;;;;;20.70;49.55;97939.25;5066201;28;20490;-70
2023/09/05 03:27:44;;;;;;;5.80;3.60;;;;;;;20.68;49.83;97938.63;5076479;28;23519;-73
2023/09/05 03:30:10;;;;;;;3.87;3.00;;;;;;;20.66;49.87;97932.66;5084131;28;20194;-75
2023/09/05 03:32:35;;;;;;;3.63;3.10;;;;;;;20.64;49.70;97940.84;5082694;28;20263;-72
2023/09/05 03:35:00;;;;;;;7.90;3.90;;;;;;;20.59;49.96;97940.63;5089401;28;20232;-72
2023/09/05 03:37:26;;;;;;;5.13;3.10;;;;;;;20.53;50.57;97939.56;5091223;28;20304;-72
2023/09/05 03:39:52;;;;;;;4.07;3.07;;;;;;;20.49;50.30;97937.50;5091731;28;20197;-72
2023/09/05 03:42:18;;;;;;;4.10;2.90;;;;;;;20.57;50.13;97932.00;5065546;28;20888;-71
2023/09/05 03:44:43;;;;;;;3.80;3.40;;;;;;;20.60;50.25;97926.28;5090730;28;20551;-72
2023/09/05 03:47:08;;;;;;;3.33;3.00;;;;;;;20.62;50.06;97926.91;5088029;28;20193;-71
2023/09/05 03:49:34;;;;;;;7.73;3.70;;;;;;;20.58;49.90;97924.84;5086001;28;20352;-71
2023/09/05 03:52:00;;;;;;;3.13;2.83;;;;;;;20.55;49.98;97918.91;5091202;28;20201;-72
2023/09/05 03:54:25;;;;;;;3.43;3.13;;;;;;;20.53;50.16;97920.13;5088711;28;20214;-72
2023/09/05 03:56:50;;;;;;;3.60;3.00;;;;;;;20.57;50.15;97916.03;5032798;28;20214;-72
2023/09/05 03:59:16;;;;;;;4.20;3.00;;;;;;;20.63;50.20;97909.91;5083313;28;20756;-72
2023/09/05 04:01:41;;;;;;;4.83;3.47;;;;;;;20.68;49.65;97915.44;5090063;28;20213;-70
2023/09/05 04:04:08;;;;;;;4.30;3.23;;;;;;;20.70;49.85;97912.59;5090555;28;20193;-72
2023/09/05 04:06:33;;;;;;;3.70;3.37;;;;;;;20.71;49.39;97914.25;5080492;28;20217;-69
2023/09/05 04:08:59;;;;;;;3.50;2.97;;;;;;;20.66;49.38;97920.19;5082468;28;20433;-73
2023/09/05 04:11:24;;;;;;;4.87;3.50;;;;;;;20.54;49.77;97919.13;5073150;28;20186;-71
2023/09/05 04:13:50;;;;;;;4.93;3.40;;;;;;;20.42;49.86;97926.84;5087791;28;20244;-70
2023/09/05 04:16:15;;;;;;;3.83;3.50;;;;;;;20.36;49.96;97931.09;5089515;28;20189;-72
2023/09/05 04:18:41;;;;;;;3.63;3.33;;;;;;;20.24;50.60;97922.03;5086556;28;20217;-70
2023/09/05 04:21:07;;;;;;;4.43;3.10;;;;;;;20.21;50.83;97925.09;5083503;28;20336;-71
2023/09/05 04:23:32;;;;;;;4.07;3.33;;;;;;;20.21;50.94;97925.09;5087208;28;20198;-71
2023/09/05 04:25:59;;;;;;;3.40;3.00;;;;;;;20.23;50.89;97920.41;5084118;28;20206;-71
2023/09/05 04:28:26;;;;;;;4.60;2.90;;;;;;;20.25;50.34;97921.03;5077549;28;20193;-72
2023/09/05 04:30:51;;;;;;;5.20;3.90;;;;;;;20.27;50.53;97924.31;5085033;28;20440;-71
2023/09/05 04:33:17;;;;;;;4.03;3.23;;;;;;;20.36;50.60;97928.44;5070445;28;20804;-72
2023/09/05 04:35:42;;;;;;;5.33;3.40;;;;;;;20.43;50.31;97917.84;5070869;28;20252;-73
2023/09/05 04:38:09;;;;;;;4.50;3.40;;;;;;;20.43;50.43;97923.16;5086966;28;20281;-71
2023/09/05 04:40:34;;;;;;;5.57;3.77;;;;;;;20.42;50.24;97926.84;5078214;28;20273;-73
2023/09/05 04:43:00;;;;;;;6.00;3.07;;;;;;;20.38;49.95;97925.56;5086701;28;21039;-70
2023/09/05 04:45:25;;;;;;;5.50;3.40;;;;;;;20.34;50.48;97929.69;5089031;28;20624;-72
2023/09/05 04:47:51;;;;;;;5.13;4.00;;;;;;;20.33;50.18;97926.19;5089637;28;20613;-71
2023/09/05 04:50:17;;;;;;;8.87;4.10;;;;;;;20.30;50.69;97928.41;5080616;28;20275;-73
2023/09/05 04:52:42;;;;;;;5.00;3.47;;;;;;;20.32;50.57;97927.19;5082427;28;20220;-70
2023/09/05 04:55:08;;;;;;;4.80;3.53;;;;;;;20.31;50.60;97925.53;5086705;28;20225;-70
2023/09/05 04:57:33;;;;;;;4.43;3.23;;;;;;;20.27;50.68;97924.31;5080607;28;20217;-72
2023/09/05 04:59:59;;;;;;;8.23;3.60;;;;;;;20.21;50.73;97914.44;5081535;28;20201;-71
2023/09/05 05:02:26;;;;;;;4.10;3.17;;;;;;;20.22;50.72;97921.41;5083609;28;20190;-72
2023/09/05 05:04:51;;;;;;;4.20;3.53;;;;;;;20.24;50.98;97924.69;5075486;28;20211;-72
2023/09/05 05:07:17;;;;;;;6.90;3.50;;;;;;;20.21;51.21;97919.78;5080571;28;20991;-69
2023/09/05 05:09:42;;;;;;;3.50;3.20;;;;;;;20.22;51.00;97926.72;5075793;28;20244;-71
2023/09/05 05:12:08;;;;;;;4.47;3.03;;;;;;;20.19;51.18;97927.13;5078459;28;20174;-72
2023/09/05 05:14:34;;;;;;;13.47;3.83;;;;;;;20.22;51.42;97924.91;5077019;28;20321;-73
2023/09/05 05:17:01;;;;;;;4.00;3.60;;;;;;;20.26;51.51;97934.13;5086149;28;20443;-71
2023/09/05 05:19:26;;;;;;;10.80;3.80;;;;;;;20.31;51.41;97930.88;5088581;28;20801;-72
2023/09/05 05:21:52;;;;;;;6.87;3.93;;;;;;;20.36;51.49;97928.44;5089566;28;20511;-70
2023/09/05 05:24:18;;;;;;;6.40;3.80;;;;;;;20.39;51.28;97927.22;5088542;28;20209;-71
2023/09/05 05:26:43;;;;;;;9.27;3.67;;;;;;;20.42;51.28;97932.16;5079602;28;20202;-72
2023/09/05 05:29:09;;;;;;;4.73;3.77;;;;;;;20.41;51.72;97933.97;5079482;28;20232;-70
2023/09/05 05:31:36;;;;;;;8.73;3.90;;;;;;;20.42;51.75;97934.81;5077994;28;20205;-71
2023/09/05 05:34:02;;;;;;;6.03;3.70;;;;;;;20.43;51.89;97928.47;5065036;28;20193;-70
2023/09/05 05:36:29;;;;;;;9.00;3.70;;;;;;;20.46;51.71;97928.09;5085730;28;20830;-73
2023/09/05 05:39:02;;;;;;;4.40;3.80;;;;;;;20.46;51.69;97930.75;5081242;28;20205;-71
2023/09/05 05:41:28;;;;;;;3.77;3.13;;;;;;;20.52;51.94;97931.78;5057027;28;20436;-71
2023/09/05 05:43:54;;;;;;;4.83;3.47;;;;;;;20.58;51.83;97932.84;5059395;28;20432;-70
2023/09/05 05:46:20;;;;;;;5.67;3.37;;;;;;;20.66;51.91;97940.66;5078970;28;20247;-71
2023/09/05 05:48:45;;;;;;;5.33;3.77;;;;;;;20.70;51.74;97932.06;5076576;28;20972;-70
2023/09/05 05:51:12;;;;;;;5.10;3.93;;;;;;;20.81;51.89;97935.19;5077085;28;20213;-72
2023/09/05 05:53:37;;;;;;;9.27;3.63;;;;;;;20.90;51.32;97933.16;5060489;28;20564;-70
2023/09/05 05:56:03;;;;;;;8.00;4.07;;;;;;;20.95;51.38;97933.41;5084314;28;20459;-71
2023/09/05 05:58:29;;;;;;;5.50;3.63;;;;;;;21.06;51.34;97939.97;5079525;28;20245;-70
2023/09/05 06:00:54;;;;;;;4.00;3.47;;;;;;;21.15;51.34;97936.91;5088459;28;20583;-71
2023/09/05 06:03:20;;;;;;;4.90;3.50;;;;;;;21.30;51.20;97944.72;5083675;28;20186;-70
2023/09/05 06:05:47;;;;;;;6.57;3.80;;;;;;;21.42;50.93;97936.13;5087873;28;20228;-70
2023/09/05 06:08:13;;;;;;;5.17;3.73;;;;;;;21.54;50.69;97934.50;5086476;28;20436;-71
2023/09/05 06:10:38;;;;;;;4.63;3.70;;;;;;;21.69;50.83;97933.47;5087806;28;20471;-71
2023/09/05 06:13:04;;;;;;;3.60;3.20;;;;;;;21.84;50.08;97933.28;5070911;28;20188;-71
2023/09/05 06:15:33;;;;;;;3.90;3.10;;;;;;;22.00;49.89;97929.34;5087691;28;20674;-71
2023/09/05 06:18:00;;;;;;;3.70;3.40;;;;;;;22.15;49.30;97935.28;5075227;28;20464;-72
2023/09/05 06:20:25;;;;;;;5.17;3.40;;;;;;;22.33;48.68;97933.75;5076714;28;20481;-70
2023/09/05 06:22:51;;;;;;;5.93;3.00;;;;;;;22.48;48.24;97929.03;5084789;28;20463;-70
2023/09/05 06:25:16;;;;;;;3.47;2.83;;;;;;;22.64;48.00;97938.41;5076076;28;20259;-70
2023/09/05 06:27:43;;;;;;;3.90;3.53;;;;;;;22.79;47.26;97932.78;5049094;28;20190;-71
2023/09/05 06:30:08;;;;;;;4.13;3.10;;;;;;;;;;5073555;28;20228;-70
2023/09/05 06:32:34;;;;;;;6.37;3.27;;;;;;;23.06;46.58;97945.97;5085899;28;20471;-74
2023/09/05 06:34:59;;;;;;;4.60;2.53;;;;;;;23.18;46.06;97940.78;5087699;28;20269;-71
2023/09/05 06:37:28;;;;;;;5.17;2.90;;;;;;;23.30;46.01;97944.44;5086256;28;20225;-71
2023/09/05 06:39:55;;;;;;;3.33;3.03;;;;;;;23.45;45.81;97944.09;5087178;28;20177;-71
2023/09/05 06:42:21;;;;;;;7.40;2.73;;;;;;;23.57;45.05;97941.56;5084766;28;20412;-73
2023/09/05 06:44:48;;;;;;;3.30;2.20;;;;;;;23.69;44.49;97949.69;5086443;28;20500;-71
2023/09/05 06:47:13;;;;;;;3.50;2.60;;;;;;;23.77;44.47;97949.41;5084376;28;20412;-69
2023/09/05 06:49:38;;;;;;;3.20;2.73;;;;;;;23.80;43.50;97950.03;5087157;28;20448;-72
2023/09/05 06:52:04;;;;;;;2.30;2.10;;;;;;;23.90;44.26;97945.78;5087609;28;20219;-71
2023/09/05 06:54:30;;;;;;;3.70;2.37;;;;;;;23.99;43.38;97941.00;5066186;28;20204;-70
2023/09/05 06:56:56;;;;;;;4.33;2.63;;;;;;;24.13;42.92;97948.91;5086958;28;20178;-70
2023/09/05 06:59:21;;;;;;;2.87;2.67;;;;;;;24.20;41.98;97958.50;5084393;28;20540;-72
2023/09/05 07:01:47;;;;;;;2.67;2.47;;;;;;;24.33;42.28;97965.56;5078577;28;20204;-69
2023/09/05 07:04:13;;;;;;;10.70;2.50;;;;;;;24.42;42.03;97952.69;5081273;28;20186;-70
2023/09/05 07:06:42;;;;;;;2.67;2.47;;;;;;;24.50;41.65;97956.94;5083629;28;20181;-71
2023/09/05 07:09:07;;;;;;;3.60;2.40;;;;;;;24.67;41.61;97944.56;5079020;28;20976;-70
2023/09/05 07:11:33;;;;;;;3.53;2.63;;;;;;;24.83;41.73;97950.38;5075409;28;20421;-70
2023/09/05 07:13:58;;;;;;;2.60;2.40;;;;;;;24.95;41.32;97955.78;5078200;28;20182;-70
2023/09/05 07:16:24;;;;;;;2.90;2.40;;;;;;;25.08;41.30;97950.25;5083852;28;20185;-69
2023/09/05 07:18:49;;;;;;;2.93;2.63;;;;;;;25.26;40.95;97957.41;5077240;28;20207;-70
2023/09/05 07:21:15;;;;;;;4.80;2.67;;;;;;;25.43;40.68;97954.09;5075904;28;20571;-73
2023/09/05 07:23:40;;;;;;;3.00;2.43;;;;;;;25.55;40.57;97956.78;5078178;28;20532;-73
2023/09/05 07:26:06;;;;;;;4.70;2.40;;;;;;;25.71;40.07;97955.28;5082133;28;20232;-73
2023/09/05 07:28:33;;;;;;;3.40;2.87;;;;;;;25.88;40.38;97958.13;5055171;28;20926;-73
2023/09/05 07:30:59;;;;;;;3.23;2.70;;;;;;;25.99;39.26;97951.09;5073598;28;20482;-72
2023/09/05 07:33:25;;;;;;;6.17;2.20;;;;;;;26.16;39.17;97954.75;5083315;28;20424;-73
2023/09/05 07:35:50;;;;;;;2.43;2.00;;;;;;;26.36;39.45;97956.22;5088758;28;20984;-72
2023/09/05 07:38:17;;;;;;;3.00;2.70;;;;;;;26.43;38.60;97954.22;5083297;28;20281;-73
2023/09/05 07:40:43;;;;;;;2.50;2.30;;;;;;;26.58;38.33;97955.59;5089244;28;20197;-71
2023/09/05 07:43:08;;;;;;;5.60;2.37;;;;;;;26.69;38.36;97946.69;5087859;28;20520;-72
2023/09/05 07:45:34;;;;;;;3.87;2.40;;;;;;;26.87;38.41;97956.47;5081430;28;20297;-73
2023/09/05 07:47:59;;;;;;;3.00;2.57;;;;;;;27.05;38.00;97955.44;5066373;28;20193;-74
2023/09/05 07:50:27;;;;;;;3.03;2.30;;;;;;;27.18;37.48;97950.81;5065902;28;20256;-73
2023/09/05 07:52:53;;;;;;;4.07;2.10;;;;;;;27.33;36.94;97955.66;5083273;28;20197;-70
2023/09/05 07:55:18;;;;;;;4.00;2.37;;;;;;;27.13;35.97;97952.34;5087894;28;20478;-71
2023/09/05 07:57:44;;;;;;;4.00;2.07;;;;;;;27.33;36.06;97944.88;5086863;28;20210;-73
2023/09/05 08:00:11;;;;;;;6.70;2.57;;;;;;;27.48;35.75;97953.25;5084697;28;20221;-73
2023/09/05 08:02:36;;;;;;;2.40;2.17;;;;;;;27.64;35.55;97946.22;5051269;28;20198;-73
2023/09/05 08:05:04;;;;;;;2.57;2.37;;;;;;;27.66;35.04;97954.88;5087948;28;20550;-73
2023/09/05 08:07:30;;;;;;;2.40;2.20;;;;;;;27.81;35.17;97945.41;5082827;28;20201;-73
2023/09/05 08:09:55;;;;;;;2.20;2.00;;;;;;;28.01;35.16;97953.78;5086842;28;20801;-72
2023/09/05 08:12:21;;;;;;;2.50;2.30;;;;;;;28.25;35.13;97950.88;5090845;28;20233;-72
2023/09/05 08:14:46;;;;;;;9.43;2.40;;;;;;;28.39;34.78;97950.53;5071910;28;20213;-74
2023/09/05 08:17:12;;;;;;;2.67;2.47;;;;;;;28.47;34.31;97958.19;5078127;28;20224;-73
2023/09/05 08:19:38;;;;;;;2.37;2.20;;;;;;;28.64;34.10;97953.53;5086335;28;20209;-72
2023/09/05 08:22:05;;;;;;;5.80;2.30;;;;;;;28.81;34.07;97936.50;5081115;28;20199;-72
2023/09/05 08:24:30;;;;;;;4.43;2.87;;;;;;;28.84;33.81;97949.47;5090474;28;20480;-73
2023/09/05 08:26:56;;;;;;;2.20;2.10;;;;;;;29.00;33.35;97944.22;5089828;28;20431;-72
2023/09/05 08:29:23;;;;;;;4.30;2.00;;;;;;;29.08;32.99;97941.09;5082821;28;20600;-72
2023/09/05 08:31:48;;;;;;;2.50;2.30;;;;;;;29.18;32.96;97934.94;5084913;28;20190;-72
2023/09/05 08:34:14;;;;;;;2.50;2.30;;;;;;;29.31;32.87;97939.91;5090453;28;20427;-72
2023/09/05 08:36:40;;;;;;;2.20;2.00;;;;;;;29.22;32.60;97939.59;5072222;28;20204;-71
2023/09/05 08:39:06;;;;;;;2.50;2.13;;;;;;;29.33;32.37;97940.50;5066921;28;20686;-73
2023/09/05 08:41:31;;;;;;;4.40;3.30;;;;;;;29.44;32.67;97944.13;5080322;28;20514;-72
2023/09/05 08:43:57;;;;;;;3.90;3.53;;;;;;;29.58;32.21;97939.91;5071887;28;20190;-73
2023/09/05 08:46:24;;;;;;;6.20;3.67;;;;;;;29.78;32.56;97938.44;5083047;28;21818;-72
2023/09/05 08:48:50;;;;;;;6.43;2.97;;;;;;;29.43;32.67;97931.69;5088554;28;20188;-70
2023/09/05 08:51:18;;;;;;;3.50;2.43;;;;;;;29.61;33.50;97935.09;5081731;28;20518;-72
2023/09/05 08:53:52;;;;;;;5.67;2.40;;;;;;;29.92;32.66;97936.09;5089245;28;20424;-72
2023/09/05 08:56:17;;;;;;;3.07;2.20;;;;;;;30.13;32.13;97928.13;5083815;28;20464;-72
2023/09/05 08:58:43;;;;;;;4.70;2.50;;;;;;;29.79;31.65;97926.56;5089614;28;20975;-72
2023/09/05 09:01:10;;;;;;;4.27;2.10;;;;;;;29.75;32.38;97928.13;5067692;28;20686;-72
2023/09/05 09:03:37;;;;;;;3.03;2.07;;;;;;;30.08;32.56;97928.09;5086403;28;20577;-71
2023/09/05 09:06:02;;;;;;;3.30;2.10;;;;;;;30.03;32.15;97920.78;5088891;28;20544;-74
2023/09/05 09:08:38;;;;;;;2.33;2.10;;;;;;;30.30;31.39;97917.94;5069024;28;20469;-71
2023/09/05 09:11:07;;;;;;;2.50;2.30;;;;;;;30.34;30.90;97920.94;5089294;28;20284;-72
2023/09/05 09:13:33;;;;;;;5.67;2.33;;;;;;;30.55;31.14;97923.72;5081681;28;20431;-73
2023/09/05 09:16:02;;;;;;;6.10;2.07;;;;;;;30.41;30.42;97921.50;5069863;28;20447;-72
2023/09/05 09:18:31;;;;;;;2.30;2.10;;;;;;;30.62;30.36;97924.31;5080314;28;20202;-73
2023/09/05 09:20:59;;;;;;;3.43;2.10;;;;;;;30.87;30.55;97926.25;5080031;28;20435;-72
2023/09/05 09:23:26;;;;;;;1.77;1.60;;;;;;;31.00;30.30;97929.53;5083995;28;20431;-73
2023/09/05 09:25:51;;;;;;;1.80;1.70;;;;;;;30.48;30.55;97930.19;5088657;28;20500;-71
2023/09/05 09:28:31;;;;;;;4.30;2.03;;;;;;;30.78;30.50;97928.66;5089548;28;20936;-71
2023/09/05 09:31:10;;;;;;;2.43;1.87;;;;;;;31.09;30.12;97926.03;5075667;28;20201;-72
2023/09/05 09:33:36;;;;;;;2.90;1.90;;;;;;;31.28;29.73;97922.00;5090117;28;20956;-71
2023/09/05 09:36:11;;;;;;;3.10;2.67;;;;;;;31.52;30.05;97924.97;5083042;28;20494;-72
2023/09/05 09:38:39;;;;;;;6.60;1.83;;;;;;;31.64;29.57;97927.41;5085522;28;20274;-72
2023/09/05 09:41:06;;;;;;;2.10;1.90;;;;;;;31.84;29.30;97911.13;5085538;28;20465;-73
2023/09/05 09:43:33;;;;;;;2.10;1.73;;;;;;;31.89;28.84;97914.94;5089400;28;20642;-71
2023/09/05 09:46:00;;;;;;;4.00;1.83;;;;;;;32.09;29.05;97914.06;5088669;28;20448;-71
2023/09/05 09:48:27;;;;;;;6.20;2.10;;;;;;;32.23;29.41;97906.97;5069223;28;20492;-73
2023/09/05 09:50:57;;;;;;;5.77;2.67;;;;;;;32.30;28.26;97902.06;5054102;28;20518;-72
2023/09/05 09:53:29;;;;;;;2.00;1.80;;;;;;;32.35;28.40;97903.16;5057728;28;20443;-71
2023/09/05 09:55:55;;;;;;;3.47;1.57;;;;;;;32.29;27.57;97910.50;5088409;28;20443;-72
2023/09/05 09:58:22;;;;;;;4.10;1.80;;;;;;;32.52;27.43;97906.31;5087767;28;20562;-72
2023/09/05 10:00:49;;;;;;;2.63;1.70;;;;;;;32.43;27.45;97905.28;5054133;28;20980;-71
2023/09/05 10:03:15;;;;;;;2.93;1.50;;;;;;;32.44;27.02;97901.47;5049849;28;20439;-73
2023/09/05 10:05:41;;;;;;;1.67;1.57;;;;;;;32.40;27.01;97901.22;5086776;28;20486;-71
2023/09/05 10:08:11;;;;;;;3.50;1.73;;;;;;;32.50;27.78;97894.94;5068330;28;21013;-70
2023/09/05 10:10:40;;;;;;;6.23;2.10;;;;;;;32.68;27.96;97890.78;5076851;28;20236;-72
2023/09/05 10:13:07;;;;;;;5.23;1.70;;;;;;;32.78;28.39;97888.00;5073336;28;20479;-73
2023/09/05 10:15:41;;;;;;;3.43;1.50;;;;;;;33.01;28.58;97876.75;5087930;28;20801;-71
2023/09/05 10:18:09;;;;;;;2.63;1.80;;;;;;;33.19;28.32;97886.91;5087741;28;20464;-71
2023/09/05 10:20:37;;;;;;;1.80;1.70;;;;;;;33.31;27.60;97881.13;5080560;28;20427;-71
2023/09/05 10:23:05;;;;;;;1.70;1.60;;;;;;;33.42;28.05;97887.28;5080543;28;20428;-71
2023/09/05 10:25:31;;;;;;;2.10;1.60;;;;;;;33.44;27.16;97884.28;5079491;28;20463;-72
2023/09/05 10:27:56;;;;;;;2.70;2.07;;;;;;;33.47;27.53;97889.13;5069634;28;20772;-71
2023/09/05 10:30:22;;;;;;;3.20;2.03;;;;;;;33.42;27.36;97892.72;5079615;28;20284;-72
2023/09/05 10:32:48;;;;;;;3.43;1.97;;;;;;;33.36;26.85;97893.88;5064514;28;20627;-71
2023/09/05 10:35:18;;;;;;;4.17;1.80;;;;;;;33.35;26.88;97884.09;5083677;28;20308;-71
2023/09/05 10:37:45;;;;;;;3.53;1.67;;;;;;;33.42;27.99;97887.28;5068473;28;20524;-72
2023/09/05 10:40:11;;;;;;;3.83;1.50;;;;;;;33.41;27.60;97884.84;5086509;28;20493;-72
2023/09/05 10:42:54;;;;;;;2.50;2.10;;;;;;;33.54;27.27;97879.56;5066592;28;20429;-70
2023/09/05 10:45:23;;;;;;;1.63;1.53;;;;;;;33.47;26.35;97879.09;5065757;28;20829;-71
2023/09/05 10:47:54;;;;;;;6.03;1.60;;;;;;;33.52;26.80;97881.75;5079017;28;20428;-70
2023/09/05 10:50:20;;;;;;;2.23;1.70;;;;;;;33.28;26.75;97870.00;5087424;28;20428;-71
2023/09/05 10:53:11;;;;;;;6.47;1.60;;;;;;;33.39;26.93;97866.16;5088130;28;21191;-73
2023/09/05 10:55:44;;;;;;;2.07;1.67;;;;;;;33.48;27.39;97869.03;5078648;28;20441;-72
2023/09/05 10:58:37;;;;;;;3.67;1.77;;;;;;;33.64;27.71;97870.50;5085932;28;20513;-71
2023/09/05 11:01:31;;;;;;;1.93;1.57;;;;;;;33.70;26.44;97873.97;5087080;28;20435;-71
2023/09/05 11:04:07;;;;;;;3.53;2.00;;;;;;;33.74;26.80;97871.47;5075189;28;20439;-72
2023/09/05 11:06:33;;;;;;;2.40;1.93;;;;;;;33.72;26.38;97871.78;5078583;28;20855;-71
2023/09/05 11:09:07;;;;;;;2.90;1.50;;;;;;;33.63;26.89;97876.22;5085410;28;20538;-75
2023/09/05 11:11:36;;;;;;;3.00;1.60;;;;;;;33.55;26.29;97866.78;5084616;28;20523;-73
2023/09/05 11:14:03;;;;;;;5.30;1.97;;;;;;;33.67;26.92;97863.66;5081969;28;20488;-72
2023/09/05 11:16:29;;;;;;;1.77;1.50;;;;;;;33.88;27.69;97866.22;5087282;28;20459;-73
2023/09/05 11:18:56;;;;;;;2.17;1.40;;;;;;;33.89;25.99;97873.28;5069605;28;20914;-74
2023/09/05 11:21:23;;;;;;;2.17;1.90;;;;;;;33.92;26.17;97861.81;5084081;28;20558;-73
2023/09/05 11:23:51;;;;;;;3.53;1.70;;;;;;;34.02;26.93;97864.41;5084810;28;20423;-72
2023/09/05 11:26:16;;;;;;;3.97;1.53;;;;;;;33.82;26.04;97868.94;5084358;28;20462;-72
2023/09/05 11:28:42;;;;;;;1.70;1.60;;;;;;;34.07;26.69;97861.63;5064331;28;20427;-73
2023/09/05 11:31:11;;;;;;;3.03;2.10;;;;;;;34.19;25.87;97860.38;5084077;28;20259;-73
2023/09/05 11:33:37;;;;;;;4.93;1.60;;;;;;;34.15;26.21;97850.09;5064618;28;20550;-73